sensor_id;sensor_type;location;lat;lon;timestamp;pressure;altitude;pressure_sealevel;temperature;humidity
74561;BME280;62979;55.720;37.606;2022-12-05T00:01:11;102628.00;;;-7.74;56.21
74561;BME280;62979;55.720;37.606;2022-12-05T00:03:43;102632.78;;;-7.77;56.33
74561;BME280;62979;55.720;37.606;2022-12-05T00:06:11;102624.28;;;-7.86;56.35
74561;BME280;62979;55.720;37.606;2022-12-05T00:08:41;102626.66;;;-7.88;56.51
74561;BME280;62979;55.720;37.606;2022-12-05T00:11:12;102632.78;;;-7.86;57.17
74561;BME280;62979;55.720;37.606;2022-12-05T00:13:41;102623.53;;;-7.94;56.39
74561;BME280;62979;55.720;37.606;2022-12-05T00:16:10;102627.41;;;-7.80;56.33
74561;BME280;62979;55.720;37.606;2022-12-05T00:18:38;102626.81;;;-7.86;56.19
74561;BME280;62979;55.720;37.606;2022-12-05T00:21:11;102631.75;;;-7.79;56.29
74561;BME280;62979;55.720;37.606;2022-12-05T00:23:40;102624.56;;;-7.83;56.84
74561;BME280;62979;55.720;37.606;2022-12-05T00:26:07;102619.94;;;-7.79;56.35
74561;BME280;62979;55.720;37.606;2022-12-05T00:28:35;102624.69;;;-7.73;55.52
74561;BME280;62979;55.720;37.606;2022-12-05T00:31:03;102611.25;;;-7.81;55.76
74561;BME280;62979;55.720;37.606;2022-12-05T00:33:31;102627.38;;;-7.71;56.29
74561;BME280;62979;55.720;37.606;2022-12-05T00:36:00;102628.16;;;-7.72;56.00
74561;BME280;62979;55.720;37.606;2022-12-05T00:38:30;102620.53;;;-7.81;56.14
74561;BME280;62979;55.720;37.606;2022-12-05T00:41:01;102625.00;;;-7.79;56.21
74561;BME280;62979;55.720;37.606;2022-12-05T00:43:29;102613.06;;;-7.80;55.85
74561;BME280;62979;55.720;37.606;2022-12-05T00:45:59;102614.72;;;-7.89;56.41
74561;BME280;62979;55.720;37.606;2022-12-05T00:48:26;102602.59;;;-8.00;55.89
74561;BME280;62979;55.720;37.606;2022-12-05T00:50:59;102609.50;;;-7.99;56.78
74561;BME280;62979;55.720;37.606;2022-12-05T00:53:27;102609.50;;;-7.99;56.77
74561;BME280;62979;55.720;37.606;2022-12-05T00:55:55;102603.94;;;-7.95;56.32
74561;BME280;62979;55.720;37.606;2022-12-05T00:58:26;102610.22;;;-8.00;56.43
74561;BME280;62979;55.720;37.606;2022-12-05T01:00:53;102614.09;;;-7.95;55.93
74561;BME280;62979;55.720;37.606;2022-12-05T01:03:20;102605.31;;;-7.90;56.51
74561;BME280;62979;55.720;37.606;2022-12-05T01:05:47;102598.59;;;-7.98;56.28
74561;BME280;62979;55.720;37.606;2022-12-05T01:08:15;102603.09;;;-8.04;56.58
74561;BME280;62979;55.720;37.606;2022-12-05T01:10:42;102581.41;;;-8.01;56.30
74561;BME280;62979;55.720;37.606;2022-12-05T01:13:19;102597.69;;;-7.90;56.36
74561;BME280;62979;55.720;37.606;2022-12-05T01:15:47;102582.00;;;-7.94;56.09
74561;BME280;62979;55.720;37.606;2022-12-05T01:18:14;102585.28;;;-7.96;56.39
74561;BME280;62979;55.720;37.606;2022-12-05T01:20:42;102581.69;;;-7.89;55.62
74561;BME280;62979;55.720;37.606;2022-12-05T01:23:10;102573.94;;;-7.99;55.96
74561;BME280;62979;55.720;37.606;2022-12-05T01:25:38;102577.22;;;-8.00;56.09
74561;BME280;62979;55.720;37.606;2022-12-05T01:28:06;102574.69;;;-8.09;56.17
74561;BME280;62979;55.720;37.606;2022-12-05T01:30:37;102577.25;;;-8.09;56.13
74561;BME280;62979;55.720;37.606;2022-12-05T01:33:05;102559.91;;;-8.13;56.18
74561;BME280;62979;55.720;37.606;2022-12-05T01:35:33;102562.59;;;-8.03;56.00
74561;BME280;62979;55.720;37.606;2022-12-05T01:38:02;102558.13;;;-8.14;56.46
74561;BME280;62979;55.720;37.606;2022-12-05T01:40:30;102556.03;;;-8.18;56.47
74561;BME280;62979;55.720;37.606;2022-12-05T01:42:57;102556.31;;;-8.15;56.49
74561;BME280;62979;55.720;37.606;2022-12-05T01:45:31;102557.41;;;-8.22;56.70
74561;BME280;62979;55.720;37.606;2022-12-05T01:48:04;102555.16;;;-8.19;56.18
74561;BME280;62979;55.720;37.606;2022-12-05T01:50:33;102542.59;;;-8.26;56.32
74561;BME280;62979;55.720;37.606;2022-12-05T01:53:02;102547.97;;;-8.23;56.74
74561;BME280;62979;55.720;37.606;2022-12-05T01:55:30;102556.47;;;-8.22;56.59
74561;BME280;62979;55.720;37.606;2022-12-05T01:58:00;102550.34;;;-8.24;56.23
74561;BME280;62979;55.720;37.606;2022-12-05T02:00:30;102546.47;;;-8.29;56.52
74561;BME280;62979;55.720;37.606;2022-12-05T02:03:01;102545.00;;;-8.36;56.69
74561;BME280;62979;55.720;37.606;2022-12-05T02:05:35;102526.19;;;-8.38;56.55
74561;BME280;62979;55.720;37.606;2022-12-05T02:08:05;102543.50;;;-8.25;55.95
74561;BME280;62979;55.720;37.606;2022-12-05T02:10:36;102550.94;;;-8.27;56.54
74561;BME280;62979;55.720;37.606;2022-12-05T02:13:16;102546.50;;;-8.38;56.42
74561;BME280;62979;55.720;37.606;2022-12-05T02:16:06;102545.91;;;-8.35;56.97
74561;BME280;62979;55.720;37.606;2022-12-05T02:18:54;102542.91;;;-8.31;56.32
74561;BME280;62979;55.720;37.606;2022-12-05T02:21:59;102537.97;;;-8.30;56.79
74561;BME280;62979;55.720;37.606;2022-12-05T02:24:54;102534.84;;;-8.36;56.61
74561;BME280;62979;55.720;37.606;2022-12-05T02:27:56;102543.66;;;-8.32;56.90
74561;BME280;62979;55.720;37.606;2022-12-05T02:30:39;102538.59;;;-8.24;56.32
74561;BME280;62979;55.720;37.606;2022-12-05T02:33:16;102536.16;;;-8.22;56.51
74561;BME280;62979;55.720;37.606;2022-12-05T02:35:53;102534.56;;;-8.22;56.34
74561;BME280;62979;55.720;37.606;2022-12-05T02:38:30;102522.91;;;-8.28;56.43
74561;BME280;62979;55.720;37.606;2022-12-05T02:41:11;102518.09;;;-8.34;56.53
74561;BME280;62979;55.720;37.606;2022-12-05T02:43:46;102515.56;;;-8.34;56.75
74561;BME280;62979;55.720;37.606;2022-12-05T02:46:23;102514.22;;;-8.39;56.24
74561;BME280;62979;55.720;37.606;2022-12-05T02:48:55;102519.03;;;-8.33;56.32
74561;BME280;62979;55.720;37.606;2022-12-05T02:51:28;102516.63;;;-8.32;56.48
74561;BME280;62979;55.720;37.606;2022-12-05T02:54:02;102514.25;;;-8.30;56.41
74561;BME280;62979;55.720;37.606;2022-12-05T02:56:34;102515.78;;;-8.41;55.96
74561;BME280;62979;55.720;37.606;2022-12-05T02:59:02;102508.19;;;-8.41;56.17
74561;BME280;62979;55.720;37.606;2022-12-05T03:01:32;102474.59;;;-8.65;56.17
74561;BME280;62979;55.720;37.606;2022-12-05T03:04:01;102485.94;;;-8.52;56.41
74561;BME280;62979;55.720;37.606;2022-12-05T03:06:34;102496.38;;;-8.49;56.43
74561;BME280;62979;55.720;37.606;2022-12-05T03:09:08;102471.59;;;-8.69;56.95
74561;BME280;62979;55.720;37.606;2022-12-05T03:11:41;102492.50;;;-8.54;56.31
74561;BME280;62979;55.720;37.606;2022-12-05T03:14:16;102492.66;;;-8.53;56.90
74561;BME280;62979;55.720;37.606;2022-12-05T03:16:51;102496.09;;;-8.52;56.12
74561;BME280;62979;55.720;37.606;2022-12-05T03:19:24;102487.41;;;-8.54;56.94
74561;BME280;62979;55.720;37.606;2022-12-05T03:21:59;102475.78;;;-8.61;56.19
74561;BME280;62979;55.720;37.606;2022-12-05T03:24:29;102501.75;;;-8.55;56.44
74561;BME280;62979;55.720;37.606;2022-12-05T03:27:06;102494.28;;;-8.53;56.45
74561;BME280;62979;55.720;37.606;2022-12-05T03:29:42;102490.13;;;-8.53;56.70
74561;BME280;62979;55.720;37.606;2022-12-05T03:32:21;102496.09;;;-8.52;56.27
74561;BME280;62979;55.720;37.606;2022-12-05T03:35:00;102478.16;;;-8.71;56.12
74561;BME280;62979;55.720;37.606;2022-12-05T03:37:39;102487.28;;;-8.65;56.52
74561;BME280;62979;55.720;37.606;2022-12-05T03:40:18;102482.19;;;-8.73;56.75
74561;BME280;62979;55.720;37.606;2022-12-05T03:42:56;102477.88;;;-8.74;56.90
74561;BME280;62979;55.720;37.606;2022-12-05T03:45:35;102486.66;;;-8.71;56.95
74561;BME280;62979;55.720;37.606;2022-12-05T03:48:11;102463.13;;;-8.70;57.24
74561;BME280;62979;55.720;37.606;2022-12-05T03:50:45;102477.00;;;-8.75;57.07
74561;BME280;62979;55.720;37.606;2022-12-05T03:53:17;102467.44;;;-8.69;56.63
74561;BME280;62979;55.720;37.606;2022-12-05T03:55:54;102467.44;;;-8.69;56.78
74561;BME280;62979;55.720;37.606;2022-12-05T03:58:30;102472.94;;;-8.64;56.26
74561;BME280;62979;55.720;37.606;2022-12-05T04:01:02;102466.22;;;-8.64;56.76
74561;BME280;62979;55.720;37.606;2022-12-05T04:03:37;102462.50;;;-8.76;56.34
74561;BME280;62979;55.720;37.606;2022-12-05T04:06:17;102416.84;;;-9.11;56.58
74561;BME280;62979;55.720;37.606;2022-12-05T04:08:53;102451.63;;;-8.84;57.04
74561;BME280;62979;55.720;37.606;2022-12-05T04:11:26;102447.44;;;-8.83;56.81
74561;BME280;62979;55.720;37.606;2022-12-05T04:14:02;102458.50;;;-8.82;56.58
74561;BME280;62979;55.720;37.606;2022-12-05T04:16:38;102450.44;;;-8.87;56.77
74561;BME280;62979;55.720;37.606;2022-12-05T04:19:30;102459.97;;;-8.76;56.42
74561;BME280;62979;55.720;37.606;2022-12-05T04:22:21;102458.47;;;-8.91;56.76
74561;BME280;62979;55.720;37.606;2022-12-05T04:24:50;102460.09;;;-9.00;56.98
74561;BME280;62979;55.720;37.606;2022-12-05T04:27:40;102452.78;;;-8.97;56.61
74561;BME280;62979;55.720;37.606;2022-12-05T04:30:19;102447.72;;;-8.97;57.00
74561;BME280;62979;55.720;37.606;2022-12-05T04:32:52;102441.75;;;-8.98;56.88
74561;BME280;62979;55.720;37.606;2022-12-05T04:35:31;102431.50;;;-8.99;56.92
74561;BME280;62979;55.720;37.606;2022-12-05T04:38:05;102420.88;;;-8.95;56.84
74561;BME280;62979;55.720;37.606;2022-12-05T04:40:39;102427.16;;;-9.00;56.29
74561;BME280;62979;55.720;37.606;2022-12-05T04:43:14;102431.94;;;-9.03;56.41
74561;BME280;62979;55.720;37.606;2022-12-05T04:45:45;102424.16;;;-8.88;56.60
74561;BME280;62979;55.720;37.606;2022-12-05T04:48:15;102430.13;;;-8.96;56.59
74561;BME280;62979;55.720;37.606;2022-12-05T04:50:48;102429.22;;;-8.88;56.90
74561;BME280;62979;55.720;37.606;2022-12-05T04:53:19;102420.16;;;-8.94;56.92
74561;BME280;62979;55.720;37.606;2022-12-05T04:55:51;102414.94;;;-8.87;56.63
74561;BME280;62979;55.720;37.606;2022-12-05T04:58:24;102422.22;;;-8.81;56.85
74561;BME280;62979;55.720;37.606;2022-12-05T05:01:06;102414.03;;;-8.79;56.48
74561;BME280;62979;55.720;37.606;2022-12-05T05:03:42;102398.06;;;-8.95;56.27
74561;BME280;62979;55.720;37.606;2022-12-05T05:06:17;102414.47;;;-8.83;56.43
74561;BME280;62979;55.720;37.606;2022-12-05T05:08:49;102404.66;;;-8.80;56.61
74561;BME280;62979;55.720;37.606;2022-12-05T05:11:20;102394.34;;;-8.90;55.97
74561;BME280;62979;55.720;37.606;2022-12-05T05:13:48;102411.66;;;-8.86;56.27
74561;BME280;62979;55.720;37.606;2022-12-05T05:16:18;102410.47;;;-8.90;56.17
74561;BME280;62979;55.720;37.606;2022-12-05T05:18:48;102411.19;;;-8.91;56.61
74561;BME280;62979;55.720;37.606;2022-12-05T05:21:20;102416.72;;;-9.03;56.38
74561;BME280;62979;55.720;37.606;2022-12-05T05:23:50;102402.69;;;-9.17;57.05
74561;BME280;62979;55.720;37.606;2022-12-05T05:26:17;102419.25;;;-9.03;56.25
74561;BME280;62979;55.720;37.606;2022-12-05T05:28:46;102415.66;;;-8.88;56.43
74561;BME280;62979;55.720;37.606;2022-12-05T05:31:14;102412.06;;;-8.90;56.33
74561;BME280;62979;55.720;37.606;2022-12-05T05:33:43;102419.41;;;-8.85;56.48
74561;BME280;62979;55.720;37.606;2022-12-05T05:36:11;102420.75;;;-8.79;56.41
74561;BME280;62979;55.720;37.606;2022-12-05T05:38:42;102424.31;;;-8.86;55.93
74561;BME280;62979;55.720;37.606;2022-12-05T05:41:12;102413.13;;;-8.79;55.98
74561;BME280;62979;55.720;37.606;2022-12-05T05:43:41;102403.75;;;-8.89;56.24
74561;BME280;62979;55.720;37.606;2022-12-05T05:46:09;102408.06;;;-8.88;56.37
74561;BME280;62979;55.720;37.606;2022-12-05T05:48:37;102405.69;;;-8.87;56.26
74561;BME280;62979;55.720;37.606;2022-12-05T05:51:06;102399.41;;;-8.81;55.29
74561;BME280;62979;55.720;37.606;2022-12-05T05:53:36;102395.97;;;-8.91;56.30
74561;BME280;62979;55.720;37.606;2022-12-05T05:56:07;102384.34;;;-9.06;55.99
74561;BME280;62979;55.720;37.606;2022-12-05T05:58:35;102398.38;;;-8.92;56.35
74561;BME280;62979;55.720;37.606;2022-12-05T06:01:03;102398.38;;;-8.92;56.24
74561;BME280;62979;55.720;37.606;2022-12-05T06:03:30;102401.78;;;-8.83;55.91
74561;BME280;62979;55.720;37.606;2022-12-05T06:05:58;102379.72;;;-8.84;55.21
74561;BME280;62979;55.720;37.606;2022-12-05T06:08:28;102398.22;;;-8.68;55.74
74561;BME280;62979;55.720;37.606;2022-12-05T06:10:55;102369.00;;;-8.73;55.08
74561;BME280;62979;55.720;37.606;2022-12-05T06:13:23;102386.69;;;-8.55;54.65
74561;BME280;62979;55.720;37.606;2022-12-05T06:15:51;102402.34;;;-8.42;54.70
74561;BME280;62979;55.720;37.606;2022-12-05T06:18:18;102402.25;;;-8.25;54.40
74561;BME280;62979;55.720;37.606;2022-12-05T06:20:51;102397.16;;;-8.16;53.79
74561;BME280;62979;55.720;37.606;2022-12-05T06:23:19;102365.22;;;-8.23;53.99
74561;BME280;62979;55.720;37.606;2022-12-05T06:25:47;102393.19;;;-7.95;53.20
74561;BME280;62979;55.720;37.606;2022-12-05T06:28:14;102380.03;;;-7.91;53.22
74561;BME280;62979;55.720;37.606;2022-12-05T06:30:43;102365.06;;;-7.88;53.09
74561;BME280;62979;55.720;37.606;2022-12-05T06:33:11;102385.06;;;-7.82;52.70
74561;BME280;62979;55.720;37.606;2022-12-05T06:35:38;102389.81;;;-7.77;52.95
74561;BME280;62979;55.720;37.606;2022-12-05T06:38:06;102388.94;;;-7.77;52.14
74561;BME280;62979;55.720;37.606;2022-12-05T06:40:33;102386.31;;;-7.68;52.47
74561;BME280;62979;55.720;37.606;2022-12-05T06:43:00;102372.28;;;-7.65;52.79
74561;BME280;62979;55.720;37.606;2022-12-05T06:45:27;102372.41;;;-7.63;52.09
74561;BME280;62979;55.720;37.606;2022-12-05T06:47:56;102379.00;;;-7.65;52.07
74561;BME280;62979;55.720;37.606;2022-12-05T06:50:23;102370.88;;;-7.61;51.98
74561;BME280;62979;55.720;37.606;2022-12-05T06:52:50;102379.78;;;-7.47;52.07
74561;BME280;62979;55.720;37.606;2022-12-05T06:55:17;102371.81;;;-7.42;51.40
74561;BME280;62979;55.720;37.606;2022-12-05T06:57:44;102378.97;;;-7.38;52.16
74561;BME280;62979;55.720;37.606;2022-12-05T07:00:12;102368.53;;;-7.41;51.65
74561;BME280;62979;55.720;37.606;2022-12-05T07:02:59;102369.41;;;-7.40;51.70
74561;BME280;62979;55.720;37.606;2022-12-05T07:05:26;102382.97;;;-7.31;51.85
74561;BME280;62979;55.720;37.606;2022-12-05T07:07:53;102371.41;;;-7.27;51.34
74561;BME280;62979;55.720;37.606;2022-12-05T07:10:20;102375.06;;;-7.15;50.97
74561;BME280;62979;55.720;37.606;2022-12-05T07:12:47;102370.81;;;-7.06;51.47
74561;BME280;62979;55.720;37.606;2022-12-05T07:15:14;102355.59;;;-7.15;50.99
74561;BME280;62979;55.720;37.606;2022-12-05T07:17:41;102362.97;;;-6.99;50.94
74561;BME280;62979;55.720;37.606;2022-12-05T07:20:10;102364.53;;;-6.91;50.77
74561;BME280;62979;55.720;37.606;2022-12-05T07:22:42;102360.75;;;-6.85;50.28
74561;BME280;62979;55.720;37.606;2022-12-05T07:25:10;102347.22;;;-6.95;50.25
74561;BME280;62979;55.720;37.606;2022-12-05T07:27:37;102354.53;;;-6.79;50.39
74561;BME280;62979;55.720;37.606;2022-12-05T07:30:05;102356.09;;;-6.71;50.31
74561;BME280;62979;55.720;37.606;2022-12-05T07:32:33;102351.97;;;-6.60;50.16
74561;BME280;62979;55.720;37.606;2022-12-05T07:35:00;102354.50;;;-6.60;50.11
74561;BME280;62979;55.720;37.606;2022-12-05T07:37:28;102346.50;;;-6.54;49.97
74561;BME280;62979;55.720;37.606;2022-12-05T07:39:56;102323.78;;;-6.72;50.05
74561;BME280;62979;55.720;37.606;2022-12-05T07:42:23;102337.19;;;-6.64;50.47
74561;BME280;62979;55.720;37.606;2022-12-05T07:44:50;102325.50;;;-6.62;49.85
74561;BME280;62979;55.720;37.606;2022-12-05T07:47:17;102344.84;;;-6.54;49.73
74561;BME280;62979;55.720;37.606;2022-12-05T07:49:44;102335.59;;;-6.53;49.93
74561;BME280;62979;55.720;37.606;2022-12-05T07:52:11;102344.22;;;-6.51;49.71
74561;BME280;62979;55.720;37.606;2022-12-05T07:54:39;102340.72;;;-6.43;50.41
74561;BME280;62979;55.720;37.606;2022-12-05T07:57:06;102342.63;;;-6.40;49.39
74561;BME280;62979;55.720;37.606;2022-12-05T07:59:33;102325.53;;;-6.41;49.47
74561;BME280;62979;55.720;37.606;2022-12-05T08:02:00;102328.47;;;-6.47;49.07
74561;BME280;62979;55.720;37.606;2022-12-05T08:04:27;102329.41;;;-6.36;49.31
74561;BME280;62979;55.720;37.606;2022-12-05T08:06:54;102324.41;;;-6.45;49.43
74561;BME280;62979;55.720;37.606;2022-12-05T08:09:21;102324.41;;;-6.45;48.97
74561;BME280;62979;55.720;37.606;2022-12-05T08:11:51;102310.78;;;-6.46;49.67
74561;BME280;62979;55.720;37.606;2022-12-05T08:14:18;102323.78;;;-6.42;49.46
74561;BME280;62979;55.720;37.606;2022-12-05T08:16:45;102320.22;;;-6.34;49.37
74561;BME280;62979;55.720;37.606;2022-12-05T08:19:12;102317.81;;;-6.33;49.27
74561;BME280;62979;55.720;37.606;2022-12-05T08:21:41;102316.94;;;-6.33;48.72
74561;BME280;62979;55.720;37.606;2022-12-05T08:24:09;102307.25;;;-6.37;49.04
74561;BME280;62979;55.720;37.606;2022-12-05T08:26:37;102297.53;;;-6.41;48.88
74561;BME280;62979;55.720;37.606;2022-12-05T08:29:08;102304.84;;;-6.36;48.79
74561;BME280;62979;55.720;37.606;2022-12-05T08:31:39;102308.28;;;-6.25;48.32
74561;BME280;62979;55.720;37.606;2022-12-05T08:34:10;102298.41;;;-6.01;47.84
74561;BME280;62979;55.720;37.606;2022-12-05T08:36:38;102298.50;;;-5.90;47.97
74561;BME280;62979;55.720;37.606;2022-12-05T08:39:07;102275.03;;;-5.86;47.51
74561;BME280;62979;55.720;37.606;2022-12-05T08:41:39;102288.53;;;-5.56;47.20
74561;BME280;62979;55.720;37.606;2022-12-05T08:44:08;102293.00;;;-5.43;46.75
74561;BME280;62979;55.720;37.606;2022-12-05T08:46:41;102286.88;;;-5.45;46.13
74561;BME280;62979;55.720;37.606;2022-12-05T08:49:10;102274.88;;;-5.46;46.33
74561;BME280;62979;55.720;37.606;2022-12-05T08:51:38;102287.38;;;-5.29;45.97
74561;BME280;62979;55.720;37.606;2022-12-05T08:54:05;102270.50;;;-5.27;45.92
74561;BME280;62979;55.720;37.606;2022-12-05T08:56:33;102274.03;;;-5.14;45.26
74561;BME280;62979;55.720;37.606;2022-12-05T08:59:03;102280.38;;;-4.99;45.32
74561;BME280;62979;55.720;37.606;2022-12-05T09:01:32;102271.03;;;-4.88;44.94
74561;BME280;62979;55.720;37.606;2022-12-05T09:04:03;102265.53;;;-4.83;44.33
74561;BME280;62979;55.720;37.606;2022-12-05T09:06:31;102266.72;;;-4.67;44.20
74561;BME280;62979;55.720;37.606;2022-12-05T09:09:02;102269.94;;;-4.48;44.04
74561;BME280;62979;55.720;37.606;2022-12-05T09:11:32;102264.91;;;-4.36;43.68
74561;BME280;62979;55.720;37.606;2022-12-05T09:14:01;102247.03;;;-4.36;43.75
74561;BME280;62979;55.720;37.606;2022-12-05T09:16:32;102252.72;;;-4.28;43.21
74561;BME280;62979;55.720;37.606;2022-12-05T09:19:00;102247.38;;;-4.20;43.10
74561;BME280;62979;55.720;37.606;2022-12-05T09:21:29;102251.53;;;-4.10;42.90
74561;BME280;62979;55.720;37.606;2022-12-05T09:23:58;102224.16;;;-4.23;43.40
74561;BME280;62979;55.720;37.606;2022-12-05T09:26:26;102228.09;;;-4.16;43.04
74561;BME280;62979;55.720;37.606;2022-12-05T09:28:55;102219.41;;;-4.18;43.09
74561;BME280;62979;55.720;37.606;2022-12-05T09:31:24;102233.19;;;-4.16;43.00
74561;BME280;62979;55.720;37.606;2022-12-05T09:33:54;102233.44;;;-4.13;42.94
74561;BME280;62979;55.720;37.606;2022-12-05T09:36:23;102230.34;;;-4.09;43.12
74561;BME280;62979;55.720;37.606;2022-12-05T09:38:52;102228.56;;;-3.98;42.92
74561;BME280;62979;55.720;37.606;2022-12-05T09:41:37;102228.38;;;-3.90;42.75
74561;BME280;62979;55.720;37.606;2022-12-05T09:44:40;102217.84;;;-3.82;42.46
74561;BME280;62979;55.720;37.606;2022-12-05T09:47:16;102218.50;;;-3.73;42.02
74561;BME280;62979;55.720;37.606;2022-12-05T09:49:57;102217.75;;;-3.60;42.12
74561;BME280;62979;55.720;37.606;2022-12-05T09:52:28;102214.41;;;-3.48;44.52
74561;BME280;62979;55.720;37.606;2022-12-05T09:55:02;102209.31;;;-3.48;42.94
74561;BME280;62979;55.720;37.606;2022-12-05T09:57:35;102203.06;;;-3.28;41.76
74561;BME280;62979;55.720;37.606;2022-12-05T10:00:09;102203.69;;;-2.95;41.57
74561;BME280;62979;55.720;37.606;2022-12-05T10:02:45;102201.72;;;-2.74;40.82
74561;BME280;62979;55.720;37.606;2022-12-05T10:05:25;102190.97;;;-2.56;39.82
74561;BME280;62979;55.720;37.606;2022-12-05T10:08:04;102185.28;;;-2.52;39.33
74561;BME280;62979;55.720;37.606;2022-12-05T10:10:46;102186.16;;;-2.52;39.66
74561;BME280;62979;55.720;37.606;2022-12-05T10:13:39;102184.81;;;-2.47;39.20
74561;BME280;62979;55.720;37.606;2022-12-05T10:16:28;102172.13;;;-2.45;39.42
74561;BME280;62979;55.720;37.606;2022-12-05T10:19:04;102175.91;;;-2.52;39.60
74561;BME280;62979;55.720;37.606;2022-12-05T10:21:48;102131.50;;;-2.77;39.15
74561;BME280;62979;55.720;37.606;2022-12-05T10:24:27;102176.53;;;-2.56;39.40
74561;BME280;62979;55.720;37.606;2022-12-05T10:27:01;102165.16;;;-2.85;39.92
74561;BME280;62979;55.720;37.606;2022-12-05T10:29:34;102171.63;;;-2.90;39.77
74561;BME280;62979;55.720;37.606;2022-12-05T10:32:10;102161.44;;;-3.13;39.81
74561;BME280;62979;55.720;37.606;2022-12-05T10:34:43;102169.69;;;-3.29;40.27
74561;BME280;62979;55.720;37.606;2022-12-05T10:37:14;102176.59;;;-3.28;40.84
74561;BME280;62979;55.720;37.606;2022-12-05T10:39:44;102171.06;;;-3.46;40.67
74561;BME280;62979;55.720;37.606;2022-12-05T10:42:15;102170.19;;;-3.58;40.92
74561;BME280;62979;55.720;37.606;2022-12-05T10:44:46;102168.63;;;-3.68;41.05
74561;BME280;62979;55.720;37.606;2022-12-05T10:47:16;102163.50;;;-3.68;41.28
74561;BME280;62979;55.720;37.606;2022-12-05T10:49:43;102156.50;;;-3.82;41.93
74561;BME280;62979;55.720;37.606;2022-12-05T10:52:13;102160.34;;;-4.11;41.73
74561;BME280;62979;55.720;37.606;2022-12-05T10:54:44;102146.78;;;-4.10;42.00
74561;BME280;62979;55.720;37.606;2022-12-05T10:57:22;102171.91;;;-3.93;41.73
74561;BME280;62979;55.720;37.606;2022-12-05T10:59:52;102163.59;;;-3.90;41.73
74561;BME280;62979;55.720;37.606;2022-12-05T11:02:23;102159.91;;;-3.94;42.58
74561;BME280;62979;55.720;37.606;2022-12-05T11:04:54;102153.38;;;-3.90;42.84
74561;BME280;62979;55.720;37.606;2022-12-05T11:07:28;102160.69;;;-3.95;42.26
74561;BME280;62979;55.720;37.606;2022-12-05T11:09:56;102156.81;;;-3.90;42.72
74561;BME280;62979;55.720;37.606;2022-12-05T11:12:27;102155.47;;;-3.96;42.56
74561;BME280;62979;55.720;37.606;2022-12-05T11:15:09;102149.88;;;-4.02;42.69
74561;BME280;62979;55.720;37.606;2022-12-05T11:17:49;102137.91;;;-4.03;42.28
74561;BME280;62979;55.720;37.606;2022-12-05T11:20:38;102146.69;;;-4.00;42.49
74561;BME280;62979;55.720;37.606;2022-12-05T11:23:21;102137.41;;;-4.33;42.56
74561;BME280;62979;55.720;37.606;2022-12-05T11:25:51;102144.63;;;-4.27;42.73
74561;BME280;62979;55.720;37.606;2022-12-05T11:31:20;102136.28;;;-4.37;43.09
74561;BME280;62979;55.720;37.606;2022-12-05T11:34:00;102143.06;;;-4.37;43.30
74561;BME280;62979;55.720;37.606;2022-12-05T11:36:36;102145.69;;;-4.47;43.08
74561;BME280;62979;55.720;37.606;2022-12-05T11:39:08;102126.47;;;-4.54;43.55
74561;BME280;62979;55.720;37.606;2022-12-05T11:41:54;102147.63;;;-4.33;43.42
74561;BME280;62979;55.720;37.606;2022-12-05T11:44:45;102133.41;;;-4.41;43.42
74561;BME280;62979;55.720;37.606;2022-12-05T11:47:38;102126.06;;;-4.48;43.39
74561;BME280;62979;55.720;37.606;2022-12-05T11:50:33;102131.81;;;-4.51;43.43
74561;BME280;62979;55.720;37.606;2022-12-05T11:53:33;102122.22;;;-4.54;43.70
74561;BME280;62979;55.720;37.606;2022-12-05T11:56:19;102118.25;;;-4.50;43.76
74561;BME280;62979;55.720;37.606;2022-12-05T11:59:16;102117.13;;;-4.54;43.54
74561;BME280;62979;55.720;37.606;2022-12-05T12:02:09;102117.81;;;-4.44;43.61
74561;BME280;62979;55.720;37.606;2022-12-05T12:04:53;102103.63;;;-4.41;43.53
74561;BME280;62979;55.720;37.606;2022-12-05T12:07:42;102097.41;;;-4.44;43.56
74561;BME280;62979;55.720;37.606;2022-12-05T12:10:28;102099.97;;;-4.33;43.57
74561;BME280;62979;55.720;37.606;2022-12-05T12:13:16;102096.69;;;-4.54;43.81
74561;BME280;62979;55.720;37.606;2022-12-05T12:16:07;102098.41;;;-4.76;44.05
74561;BME280;62979;55.720;37.606;2022-12-05T12:19:02;102081.94;;;-4.91;44.47
74561;BME280;62979;55.720;37.606;2022-12-05T12:21:56;102086.91;;;-4.93;44.59
74561;BME280;62979;55.720;37.606;2022-12-05T12:24:48;102066.88;;;-5.10;44.84
74561;BME280;62979;55.720;37.606;2022-12-05T12:27:35;102069.94;;;-5.04;44.81
74561;BME280;62979;55.720;37.606;2022-12-05T12:30:16;102061.03;;;-5.09;45.40
74561;BME280;62979;55.720;37.606;2022-12-05T12:32:55;102063.88;;;-5.17;45.50
74561;BME280;62979;55.720;37.606;2022-12-05T12:35:30;102084.00;;;-5.31;45.84
74561;BME280;62979;55.720;37.606;2022-12-05T12:38:11;102079.53;;;-5.34;45.82
74561;BME280;62979;55.720;37.606;2022-12-05T12:41:01;102079.06;;;-5.40;46.14
74561;BME280;62979;55.720;37.606;2022-12-05T12:43:47;102077.63;;;-5.37;46.17
74561;BME280;62979;55.720;37.606;2022-12-05T12:46:38;102070.63;;;-5.39;46.22
74561;BME280;62979;55.720;37.606;2022-12-05T12:49:27;102045.78;;;-5.42;46.60
74561;BME280;62979;55.720;37.606;2022-12-05T12:52:17;102071.69;;;-5.47;47.22
74561;BME280;62979;55.720;37.606;2022-12-05T12:55:13;102070.31;;;-5.54;47.24
74561;BME280;62979;55.720;37.606;2022-12-05T12:58:02;102070.72;;;-5.60;47.67
74561;BME280;62979;55.720;37.606;2022-12-05T13:00:43;102057.38;;;-5.67;47.74
74561;BME280;62979;55.720;37.606;2022-12-05T13:03:23;102058.47;;;-5.53;48.04
74561;BME280;62979;55.720;37.606;2022-12-05T13:05:57;102037.19;;;-5.54;48.00
74561;BME280;62979;55.720;37.606;2022-12-05T13:08:33;102060.59;;;-5.70;48.27
74561;BME280;62979;55.720;37.606;2022-12-05T13:11:06;102042.09;;;-5.67;48.34
74561;BME280;62979;55.720;37.606;2022-12-05T13:13:39;102042.56;;;-5.61;48.14
74561;BME280;62979;55.720;37.606;2022-12-05T13:16:15;102034.97;;;-5.71;48.05